sensor_id;sensor_type;location;lat;lon;timestamp;P1;durP1;ratioP1;P2;durP2;ratioP2
48813;SDS011;34634;44.108;3.074;2022-12-07T00:01:51;18.70;;;10.30;;
48813;SDS011;34634;44.108;3.074;2022-12-07T00:04:17;18.90;;;9.80;;
48813;SDS011;34634;44.108;3.074;2022-12-07T00:06:45;17.67;;;10.20;;
48813;SDS011;34634;44.108;3.074;2022-12-07T00:09:13;17.35;;;10.18;;
48813;SDS011;34634;44.108;3.074;2022-12-07T00:11:39;19.48;;;10.10;;
48813;SDS011;34634;44.108;3.074;2022-12-07T00:14:07;18.70;;;10.10;;
48813;SDS011;34634;44.108;3.074;2022-12-07T00:16:34;21.10;;;9.88;;
48813;SDS011;34634;44.108;3.074;2022-12-07T00:19:00;19.88;;;10.38;;
48813;SDS011;34634;44.108;3.074;2022-12-07T00:21:28;18.65;;;10.38;;
48813;SDS011;34634;44.108;3.074;2022-12-07T00:23:55;18.65;;;9.82;;
48813;SDS011;34634;44.108;3.074;2022-12-07T00:26:23;15.82;;;9.23;;
48813;SDS011;34634;44.108;3.074;2022-12-07T00:29:00;16.02;;;8.90;;
48813;SDS011;34634;44.108;3.074;2022-12-07T00:31:27;14.18;;;7.97;;
48813;SDS011;34634;44.108;3.074;2022-12-07T00:33:54;16.63;;;8.50;;
48813;SDS011;34634;44.108;3.074;2022-12-07T00:36:21;15.65;;;7.63;;
48813;SDS011;34634;44.108;3.074;2022-12-07T00:38:48;15.75;;;7.70;;
48813;SDS011;34634;44.108;3.074;2022-12-07T00:41:18;14.32;;;8.00;;
48813;SDS011;34634;44.108;3.074;2022-12-07T00:43:46;16.30;;;8.35;;
48813;SDS011;34634;44.108;3.074;2022-12-07T00:46:12;16.35;;;8.13;;
48813;SDS011;34634;44.108;3.074;2022-12-07T00:48:39;17.40;;;8.02;;
48813;SDS011;34634;44.108;3.074;2022-12-07T00:51:05;16.73;;;8.57;;
48813;SDS011;34634;44.108;3.074;2022-12-07T00:53:35;14.27;;;7.57;;
48813;SDS011;34634;44.108;3.074;2022-12-07T00:56:08;14.02;;;6.93;;
48813;SDS011;34634;44.108;3.074;2022-12-07T00:58:35;12.55;;;7.45;;
48813;SDS011;34634;44.108;3.074;2022-12-07T01:01:02;16.77;;;7.82;;
48813;SDS011;34634;44.108;3.074;2022-12-07T01:03:28;15.15;;;7.82;;
48813;SDS011;34634;44.108;3.074;2022-12-07T01:05:55;15.10;;;7.72;;
48813;SDS011;34634;44.108;3.074;2022-12-07T01:08:22;17.27;;;7.20;;
48813;SDS011;34634;44.108;3.074;2022-12-07T01:10:49;16.90;;;7.53;;
48813;SDS011;34634;44.108;3.074;2022-12-07T01:13:15;14.55;;;7.88;;
48813;SDS011;34634;44.108;3.074;2022-12-07T01:15:42;11.27;;;6.15;;
48813;SDS011;34634;44.108;3.074;2022-12-07T01:18:09;9.88;;;5.85;;
48813;SDS011;34634;44.108;3.074;2022-12-07T01:20:36;12.02;;;5.80;;
48813;SDS011;34634;44.108;3.074;2022-12-07T01:23:02;9.60;;;5.53;;
48813;SDS011;34634;44.108;3.074;2022-12-07T01:25:29;13.82;;;5.82;;
48813;SDS011;34634;44.108;3.074;2022-12-07T01:27:55;8.80;;;5.20;;
48813;SDS011;34634;44.108;3.074;2022-12-07T01:30:22;10.52;;;5.00;;
48813;SDS011;34634;44.108;3.074;2022-12-07T01:32:48;9.70;;;5.50;;
48813;SDS011;34634;44.108;3.074;2022-12-07T01:35:14;10.10;;;5.18;;
48813;SDS011;34634;44.108;3.074;2022-12-07T01:37:41;7.50;;;4.55;;
48813;SDS011;34634;44.108;3.074;2022-12-07T01:40:07;9.95;;;5.18;;
48813;SDS011;34634;44.108;3.074;2022-12-07T01:42:34;12.10;;;6.05;;
48813;SDS011;34634;44.108;3.074;2022-12-07T01:47:50;13.73;;;5.95;;
48813;SDS011;34634;44.108;3.074;2022-12-07T01:50:17;10.13;;;5.53;;
48813;SDS011;34634;44.108;3.074;2022-12-07T01:52:44;9.38;;;5.38;;
48813;SDS011;34634;44.108;3.074;2022-12-07T01:55:12;9.80;;;5.85;;
48813;SDS011;34634;44.108;3.074;2022-12-07T01:57:40;8.52;;;5.03;;
48813;SDS011;34634;44.108;3.074;2022-12-07T02:00:07;10.18;;;5.63;;
48813;SDS011;34634;44.108;3.074;2022-12-07T02:02:55;9.32;;;5.53;;
48813;SDS011;34634;44.108;3.074;2022-12-07T02:05:21;11.77;;;6.45;;
48813;SDS011;34634;44.108;3.074;2022-12-07T02:07:48;10.10;;;5.82;;
48813;SDS011;34634;44.108;3.074;2022-12-07T02:10:18;8.05;;;5.03;;
48813;SDS011;34634;44.108;3.074;2022-12-07T02:12:46;11.10;;;6.00;;
48813;SDS011;34634;44.108;3.074;2022-12-07T02:15:13;12.93;;;6.50;;
48813;SDS011;34634;44.108;3.074;2022-12-07T02:25:08;12.15;;;6.80;;
48813;SDS011;34634;44.108;3.074;2022-12-07T02:27:47;12.55;;;6.55;;
48813;SDS011;34634;44.108;3.074;2022-12-07T02:30:20;10.45;;;5.97;;
48813;SDS011;34634;44.108;3.074;2022-12-07T02:38:07;11.52;;;5.72;;
48813;SDS011;34634;44.108;3.074;2022-12-07T02:43:03;14.45;;;7.07;;
48813;SDS011;34634;44.108;3.074;2022-12-07T02:45:32;15.77;;;7.07;;
48813;SDS011;34634;44.108;3.074;2022-12-07T02:48:00;12.60;;;6.10;;
48813;SDS011;34634;44.108;3.074;2022-12-07T02:50:26;12.07;;;5.63;;
48813;SDS011;34634;44.108;3.074;2022-12-07T02:52:53;17.92;;;7.78;;
48813;SDS011;34634;44.108;3.074;2022-12-07T02:55:22;14.90;;;7.90;;
48813;SDS011;34634;44.108;3.074;2022-12-07T02:57:53;16.23;;;8.05;;
48813;SDS011;34634;44.108;3.074;2022-12-07T03:00:21;13.80;;;7.40;;
48813;SDS011;34634;44.108;3.074;2022-12-07T03:08:15;13.43;;;7.47;;
48813;SDS011;34634;44.108;3.074;2022-12-07T03:18:22;27.13;;;12.70;;
48813;SDS011;34634;44.108;3.074;2022-12-07T03:20:50;17.30;;;8.95;;
48813;SDS011;34634;44.108;3.074;2022-12-07T03:23:18;10.93;;;6.32;;
48813;SDS011;34634;44.108;3.074;2022-12-07T03:25:46;10.88;;;5.70;;
48813;SDS011;34634;44.108;3.074;2022-12-07T03:28:14;9.45;;;5.13;;
48813;SDS011;34634;44.108;3.074;2022-12-07T03:30:42;14.45;;;6.65;;
48813;SDS011;34634;44.108;3.074;2022-12-07T03:33:11;12.88;;;6.80;;
48813;SDS011;34634;44.108;3.074;2022-12-07T03:35:40;14.43;;;6.72;;
48813;SDS011;34634;44.108;3.074;2022-12-07T03:40:40;14.52;;;6.47;;
48813;SDS011;34634;44.108;3.074;2022-12-07T03:43:10;12.27;;;6.22;;
48813;SDS011;34634;44.108;3.074;2022-12-07T03:45:40;11.57;;;5.57;;
48813;SDS011;34634;44.108;3.074;2022-12-07T03:51:12;16.45;;;6.65;;
48813;SDS011;34634;44.108;3.074;2022-12-07T03:53:41;13.55;;;6.50;;
48813;SDS011;34634;44.108;3.074;2022-12-07T03:56:08;13.45;;;6.07;;
48813;SDS011;34634;44.108;3.074;2022-12-07T03:58:35;14.52;;;6.30;;
48813;SDS011;34634;44.108;3.074;2022-12-07T04:01:02;17.00;;;6.15;;
48813;SDS011;34634;44.108;3.074;2022-12-07T04:03:28;16.90;;;7.15;;
48813;SDS011;34634;44.108;3.074;2022-12-07T04:05:55;12.43;;;6.05;;
48813;SDS011;34634;44.108;3.074;2022-12-07T04:08:21;15.43;;;6.20;;
48813;SDS011;34634;44.108;3.074;2022-12-07T04:10:47;15.52;;;6.93;;
48813;SDS011;34634;44.108;3.074;2022-12-07T04:13:14;11.23;;;6.07;;
48813;SDS011;34634;44.108;3.074;2022-12-07T04:15:40;14.13;;;6.28;;
48813;SDS011;34634;44.108;3.074;2022-12-07T04:18:06;15.57;;;6.60;;
48813;SDS011;34634;44.108;3.074;2022-12-07T04:20:33;16.92;;;7.70;;
48813;SDS011;34634;44.108;3.074;2022-12-07T04:22:59;15.98;;;7.38;;
48813;SDS011;34634;44.108;3.074;2022-12-07T04:25:25;17.02;;;7.82;;
48813;SDS011;34634;44.108;3.074;2022-12-07T04:27:52;15.20;;;7.05;;
48813;SDS011;34634;44.108;3.074;2022-12-07T04:30:19;12.23;;;5.80;;
48813;SDS011;34634;44.108;3.074;2022-12-07T04:32:45;13.23;;;6.25;;
48813;SDS011;34634;44.108;3.074;2022-12-07T04:35:11;9.98;;;5.63;;
48813;SDS011;34634;44.108;3.074;2022-12-07T04:37:38;10.80;;;5.20;;
48813;SDS011;34634;44.108;3.074;2022-12-07T04:40:06;9.30;;;4.57;;
48813;SDS011;34634;44.108;3.074;2022-12-07T04:42:33;13.40;;;5.07;;
48813;SDS011;34634;44.108;3.074;2022-12-07T04:44:59;9.82;;;4.93;;
48813;SDS011;34634;44.108;3.074;2022-12-07T04:47:25;8.57;;;4.70;;
48813;SDS011;34634;44.108;3.074;2022-12-07T04:49:51;8.18;;;4.55;;
48813;SDS011;34634;44.108;3.074;2022-12-07T04:52:18;8.85;;;4.25;;
48813;SDS011;34634;44.108;3.074;2022-12-07T04:54:44;7.60;;;4.28;;
48813;SDS011;34634;44.108;3.074;2022-12-07T04:57:10;7.32;;;3.80;;
48813;SDS011;34634;44.108;3.074;2022-12-07T04:59:37;6.43;;;4.38;;
48813;SDS011;34634;44.108;3.074;2022-12-07T05:02:03;8.80;;;4.88;;
48813;SDS011;34634;44.108;3.074;2022-12-07T05:04:29;7.03;;;4.10;;
48813;SDS011;34634;44.108;3.074;2022-12-07T05:06:56;6.43;;;3.90;;
48813;SDS011;34634;44.108;3.074;2022-12-07T05:09:22;7.15;;;4.13;;
48813;SDS011;34634;44.108;3.074;2022-12-07T05:11:48;7.40;;;4.05;;
48813;SDS011;34634;44.108;3.074;2022-12-07T05:14:16;10.98;;;5.25;;
48813;SDS011;34634;44.108;3.074;2022-12-07T05:16:43;10.50;;;5.82;;
48813;SDS011;34634;44.108;3.074;2022-12-07T05:19:10;10.70;;;5.80;;
48813;SDS011;34634;44.108;3.074;2022-12-07T05:21:36;11.73;;;5.95;;
48813;SDS011;34634;44.108;3.074;2022-12-07T05:24:03;10.85;;;6.05;;
48813;SDS011;34634;44.108;3.074;2022-12-07T05:26:30;8.13;;;5.28;;
48813;SDS011;34634;44.108;3.074;2022-12-07T05:28:56;10.20;;;5.00;;
48813;SDS011;34634;44.108;3.074;2022-12-07T05:31:23;9.02;;;4.68;;
48813;SDS011;34634;44.108;3.074;2022-12-07T05:33:50;10.45;;;4.80;;
48813;SDS011;34634;44.108;3.074;2022-12-07T05:36:17;12.18;;;6.30;;
48813;SDS011;34634;44.108;3.074;2022-12-07T05:38:43;10.45;;;5.45;;
48813;SDS011;34634;44.108;3.074;2022-12-07T05:41:12;10.30;;;5.28;;
48813;SDS011;34634;44.108;3.074;2022-12-07T05:43:59;8.48;;;4.85;;
48813;SDS011;34634;44.108;3.074;2022-12-07T05:46:25;10.45;;;5.50;;
48813;SDS011;34634;44.108;3.074;2022-12-07T05:48:51;10.93;;;5.38;;
48813;SDS011;34634;44.108;3.074;2022-12-07T05:51:18;7.82;;;4.80;;
48813;SDS011;34634;44.108;3.074;2022-12-07T05:53:44;7.15;;;3.80;;
48813;SDS011;34634;44.108;3.074;2022-12-07T05:56:11;7.03;;;4.05;;
48813;SDS011;34634;44.108;3.074;2022-12-07T05:58:37;11.27;;;5.30;;
48813;SDS011;34634;44.108;3.074;2022-12-07T06:01:22;12.38;;;5.57;;
48813;SDS011;34634;44.108;3.074;2022-12-07T06:03:49;15.32;;;6.57;;
48813;SDS011;34634;44.108;3.074;2022-12-07T06:06:15;18.50;;;8.05;;
48813;SDS011;34634;44.108;3.074;2022-12-07T06:08:41;20.83;;;10.10;;
48813;SDS011;34634;44.108;3.074;2022-12-07T06:11:08;19.67;;;9.77;;
48813;SDS011;34634;44.108;3.074;2022-12-07T06:13:53;15.27;;;8.68;;
48813;SDS011;34634;44.108;3.074;2022-12-07T06:16:19;15.00;;;7.97;;
48813;SDS011;34634;44.108;3.074;2022-12-07T06:18:46;13.77;;;6.90;;
48813;SDS011;34634;44.108;3.074;2022-12-07T06:21:12;12.68;;;6.90;;
48813;SDS011;34634;44.108;3.074;2022-12-07T06:23:39;12.50;;;6.72;;
48813;SDS011;34634;44.108;3.074;2022-12-07T06:26:05;9.75;;;6.28;;
48813;SDS011;34634;44.108;3.074;2022-12-07T06:28:32;13.48;;;7.50;;
48813;SDS011;34634;44.108;3.074;2022-12-07T06:30:59;15.07;;;7.63;;
48813;SDS011;34634;44.108;3.074;2022-12-07T06:33:25;18.40;;;8.55;;
48813;SDS011;34634;44.108;3.074;2022-12-07T06:35:52;18.90;;;9.10;;
48813;SDS011;34634;44.108;3.074;2022-12-07T06:38:18;13.07;;;7.45;;
48813;SDS011;34634;44.108;3.074;2022-12-07T06:40:45;16.75;;;8.60;;
48813;SDS011;34634;44.108;3.074;2022-12-07T06:43:11;32.00;;;14.10;;
48813;SDS011;34634;44.108;3.074;2022-12-07T06:45:37;53.90;;;20.80;;
48813;SDS011;34634;44.108;3.074;2022-12-07T06:48:04;90.90;;;33.78;;
48813;SDS011;34634;44.108;3.074;2022-12-07T06:50:30;63.53;;;23.67;;
48813;SDS011;34634;44.108;3.074;2022-12-07T06:52:56;66.25;;;25.67;;
48813;SDS011;34634;44.108;3.074;2022-12-07T06:55:23;55.20;;;19.67;;
48813;SDS011;34634;44.108;3.074;2022-12-07T06:57:49;26.85;;;12.60;;
48813;SDS011;34634;44.108;3.074;2022-12-07T07:00:15;15.57;;;8.10;;
48813;SDS011;34634;44.108;3.074;2022-12-07T07:02:42;17.08;;;8.02;;
48813;SDS011;34634;44.108;3.074;2022-12-07T07:05:08;14.00;;;7.28;;
48813;SDS011;34634;44.108;3.074;2022-12-07T07:07:34;15.07;;;8.13;;
48813;SDS011;34634;44.108;3.074;2022-12-07T07:10:01;28.65;;;11.98;;
48813;SDS011;34634;44.108;3.074;2022-12-07T07:12:27;20.38;;;9.95;;
48813;SDS011;34634;44.108;3.074;2022-12-07T07:14:53;22.23;;;8.77;;
48813;SDS011;34634;44.108;3.074;2022-12-07T07:17:20;16.50;;;8.70;;
48813;SDS011;34634;44.108;3.074;2022-12-07T07:19:46;15.45;;;7.07;;
48813;SDS011;34634;44.108;3.074;2022-12-07T07:22:12;13.43;;;6.68;;
48813;SDS011;34634;44.108;3.074;2022-12-07T07:24:39;15.10;;;6.40;;
48813;SDS011;34634;44.108;3.074;2022-12-07T07:27:06;14.07;;;8.20;;
48813;SDS011;34634;44.108;3.074;2022-12-07T07:29:32;15.60;;;8.90;;
48813;SDS011;34634;44.108;3.074;2022-12-07T07:31:59;15.18;;;7.50;;
48813;SDS011;34634;44.108;3.074;2022-12-07T07:34:29;14.15;;;7.50;;
48813;SDS011;34634;44.108;3.074;2022-12-07T07:36:55;20.60;;;8.45;;
48813;SDS011;34634;44.108;3.074;2022-12-07T07:39:21;19.48;;;10.48;;
48813;SDS011;34634;44.108;3.074;2022-12-07T07:41:48;29.92;;;12.05;;
48813;SDS011;34634;44.108;3.074;2022-12-07T07:44:14;29.30;;;11.77;;
48813;SDS011;34634;44.108;3.074;2022-12-07T07:46:40;20.17;;;9.93;;
48813;SDS011;34634;44.108;3.074;2022-12-07T07:49:06;18.40;;;9.20;;
48813;SDS011;34634;44.108;3.074;2022-12-07T07:51:33;22.75;;;10.05;;
48813;SDS011;34634;44.108;3.074;2022-12-07T07:53:59;26.63;;;10.80;;
48813;SDS011;34634;44.108;3.074;2022-12-07T07:56:25;22.42;;;10.77;;
48813;SDS011;34634;44.108;3.074;2022-12-07T07:58:52;37.47;;;17.35;;
48813;SDS011;34634;44.108;3.074;2022-12-07T08:01:18;30.90;;;14.40;;
48813;SDS011;34634;44.108;3.074;2022-12-07T08:03:47;30.90;;;16.15;;
48813;SDS011;34634;44.108;3.074;2022-12-07T08:06:14;14.13;;;7.20;;
48813;SDS011;34634;44.108;3.074;2022-12-07T08:08:40;20.08;;;10.45;;
48813;SDS011;34634;44.108;3.074;2022-12-07T08:11:07;45.08;;;23.92;;
48813;SDS011;34634;44.108;3.074;2022-12-07T08:13:34;20.48;;;10.65;;
48813;SDS011;34634;44.108;3.074;2022-12-07T08:16:04;19.83;;;12.27;;
48813;SDS011;34634;44.108;3.074;2022-12-07T08:18:31;23.55;;;11.07;;
48813;SDS011;34634;44.108;3.074;2022-12-07T08:21:00;19.35;;;10.77;;
48813;SDS011;34634;44.108;3.074;2022-12-07T08:23:27;18.83;;;9.32;;
48813;SDS011;34634;44.108;3.074;2022-12-07T08:25:53;16.17;;;8.57;;
48813;SDS011;34634;44.108;3.074;2022-12-07T08:28:19;14.27;;;8.45;;
48813;SDS011;34634;44.108;3.074;2022-12-07T08:30:46;21.45;;;10.25;;
48813;SDS011;34634;44.108;3.074;2022-12-07T08:33:12;15.57;;;9.05;;
48813;SDS011;34634;44.108;3.074;2022-12-07T08:35:39;29.95;;;17.90;;
48813;SDS011;34634;44.108;3.074;2022-12-07T08:38:05;33.75;;;18.55;;
48813;SDS011;34634;44.108;3.074;2022-12-07T08:40:31;34.92;;;18.40;;
48813;SDS011;34634;44.108;3.074;2022-12-07T08:42:58;33.33;;;17.88;;
48813;SDS011;34634;44.108;3.074;2022-12-07T08:45:24;32.70;;;18.30;;
48813;SDS011;34634;44.108;3.074;2022-12-07T08:47:52;34.90;;;19.55;;
48813;SDS011;34634;44.108;3.074;2022-12-07T08:50:19;32.90;;;17.45;;
48813;SDS011;34634;44.108;3.074;2022-12-07T08:52:48;33.72;;;18.63;;
48813;SDS011;34634;44.108;3.074;2022-12-07T08:55:14;23.05;;;13.93;;
48813;SDS011;34634;44.108;3.074;2022-12-07T08:57:41;21.73;;;12.23;;
48813;SDS011;34634;44.108;3.074;2022-12-07T09:00:08;33.55;;;18.17;;
48813;SDS011;34634;44.108;3.074;2022-12-07T09:02:34;41.35;;;17.60;;
48813;SDS011;34634;44.108;3.074;2022-12-07T09:05:01;29.38;;;17.23;;
48813;SDS011;34634;44.108;3.074;2022-12-07T09:07:28;32.53;;;16.88;;
48813;SDS011;34634;44.108;3.074;2022-12-07T09:09:56;34.65;;;18.38;;
48813;SDS011;34634;44.108;3.074;2022-12-07T09:12:22;35.30;;;18.13;;
48813;SDS011;34634;44.108;3.074;2022-12-07T09:14:49;32.45;;;19.40;;
48813;SDS011;34634;44.108;3.074;2022-12-07T09:17:15;32.85;;;17.65;;
48813;SDS011;34634;44.108;3.074;2022-12-07T09:19:41;23.30;;;14.90;;
48813;SDS011;34634;44.108;3.074;2022-12-07T09:22:08;21.25;;;13.27;;
48813;SDS011;34634;44.108;3.074;2022-12-07T09:24:34;25.20;;;13.48;;
48813;SDS011;34634;44.108;3.074;2022-12-07T09:27:01;26.30;;;12.82;;
48813;SDS011;34634;44.108;3.074;2022-12-07T09:29:27;22.08;;;12.68;;
48813;SDS011;34634;44.108;3.074;2022-12-07T09:31:53;19.77;;;11.77;;
48813;SDS011;34634;44.108;3.074;2022-12-07T09:34:20;19.50;;;11.02;;
48813;SDS011;34634;44.108;3.074;2022-12-07T09:36:46;21.75;;;11.65;;
48813;SDS011;34634;44.108;3.074;2022-12-07T09:39:14;17.58;;;10.27;;
48813;SDS011;34634;44.108;3.074;2022-12-07T09:41:41;18.75;;;11.30;;
48813;SDS011;34634;44.108;3.074;2022-12-07T09:44:12;15.38;;;8.50;;
48813;SDS011;34634;44.108;3.074;2022-12-07T09:46:40;11.32;;;6.20;;
48813;SDS011;34634;44.108;3.074;2022-12-07T09:49:40;33.30;;;6.68;;
48813;SDS011;34634;44.108;3.074;2022-12-07T09:54:39;12.10;;;7.35;;
48813;SDS011;34634;44.108;3.074;2022-12-07T09:57:07;15.27;;;7.10;;
48813;SDS011;34634;44.108;3.074;2022-12-07T09:59:34;14.35;;;6.50;;
48813;SDS011;34634;44.108;3.074;2022-12-07T10:02:19;11.13;;;7.20;;
48813;SDS011;34634;44.108;3.074;2022-12-07T10:04:47;11.75;;;7.07;;
48813;SDS011;34634;44.108;3.074;2022-12-07T10:07:13;14.15;;;7.63;;
48813;SDS011;34634;44.108;3.074;2022-12-07T10:09:40;12.38;;;7.30;;
48813;SDS011;34634;44.108;3.074;2022-12-07T10:12:10;13.30;;;6.60;;
48813;SDS011;34634;44.108;3.074;2022-12-07T10:17:25;12.18;;;6.85;;
48813;SDS011;34634;44.108;3.074;2022-12-07T10:19:49;12.23;;;7.03;;
48813;SDS011;34634;44.108;3.074;2022-12-07T10:22:16;9.00;;;6.53;;
48813;SDS011;34634;44.108;3.074;2022-12-07T10:24:43;12.40;;;6.90;;
48813;SDS011;34634;44.108;3.074;2022-12-07T10:27:18;14.00;;;7.47;;
48813;SDS011;34634;44.108;3.074;2022-12-07T10:29:51;13.45;;;7.43;;
48813;SDS011;34634;44.108;3.074;2022-12-07T10:34:44;11.15;;;7.43;;
48813;SDS011;34634;44.108;3.074;2022-12-07T10:39:45;10.27;;;6.38;;
48813;SDS011;34634;44.108;3.074;2022-12-07T10:44:38;8.45;;;5.65;;
48813;SDS011;34634;44.108;3.074;2022-12-07T10:49:56;8.27;;;5.70;;
48813;SDS011;34634;44.108;3.074;2022-12-07T10:52:38;10.65;;;6.47;;
48813;SDS011;34634;44.108;3.074;2022-12-07T10:55:19;8.50;;;5.75;;
48813;SDS011;34634;44.108;3.074;2022-12-07T11:00:18;11.85;;;6.50;;
48813;SDS011;34634;44.108;3.074;2022-12-07T11:13:11;12.15;;;6.70;;
48813;SDS011;34634;44.108;3.074;2022-12-07T11:23:21;12.60;;;8.43;;
48813;SDS011;34634;44.108;3.074;2022-12-07T11:26:02;11.38;;;7.18;;
48813;SDS011;34634;44.108;3.074;2022-12-07T11:36:52;15.35;;;10.65;;
48813;SDS011;34634;44.108;3.074;2022-12-07T11:41:46;18.23;;;12.55;;
48813;SDS011;34634;44.108;3.074;2022-12-07T11:44:30;18.70;;;12.20;;
48813;SDS011;34634;44.108;3.074;2022-12-07T11:47:07;19.10;;;12.50;;
48813;SDS011;34634;44.108;3.074;2022-12-07T11:52:20;16.77;;;11.95;;
48813;SDS011;34634;44.108;3.074;2022-12-07T11:54:49;21.67;;;11.50;;
48813;SDS011;34634;44.108;3.074;2022-12-07T11:57:36;15.53;;;11.27;;
48813;SDS011;34634;44.108;3.074;2022-12-07T12:00:09;15.80;;;11.20;;
48813;SDS011;34634;44.108;3.074;2022-12-07T12:05:23;12.93;;;8.82;;
48813;SDS011;34634;44.108;3.074;2022-12-07T12:07:54;12.35;;;7.78;;
48813;SDS011;34634;44.108;3.074;2022-12-07T12:10:24;12.35;;;7.47;;
48813;SDS011;34634;44.108;3.074;2022-12-07T12:20:46;9.30;;;5.68;;
48813;SDS011;34634;44.108;3.074;2022-12-07T12:25:58;7.07;;;5.28;;
48813;SDS011;34634;44.108;3.074;2022-12-07T12:28:37;7.80;;;4.57;;
48813;SDS011;34634;44.108;3.074;2022-12-07T12:33:31;6.82;;;5.38;;
48813;SDS011;34634;44.108;3.074;2022-12-07T12:42:09;7.63;;;5.60;;
48813;SDS011;34634;44.108;3.074;2022-12-07T12:46:59;6.18;;;4.47;;
48813;SDS011;34634;44.108;3.074;2022-12-07T12:51:52;7.82;;;5.80;;
48813;SDS011;34634;44.108;3.074;2022-12-07T12:54:26;8.10;;;5.60;;
48813;SDS011;34634;44.108;3.074;2022-12-07T13:01:56;14.38;;;5.20;;
48813;SDS011;34634;44.108;3.074;2022-12-07T13:04:30;8.88;;;5.15;;
48813;SDS011;34634;44.108;3.074;2022-12-07T13:07:01;7.88;;;5.45;;
48813;SDS011;34634;44.108;3.074;2022-12-07T13:09:29;9.32;;;4.70;;
48813;SDS011;34634;44.108;3.074;2022-12-07T13:12:01;5.10;;;4.20;;
48813;SDS011;34634;44.108;3.074;2022-12-07T13:24:57;5.30;;;3.97;;
48813;SDS011;34634;44.108;3.074;2022-12-07T13:27:25;6.43;;;5.20;;
48813;SDS011;34634;44.108;3.074;2022-12-07T13:29:53;12.32;;;6.13;;
48813;SDS011;34634;44.108;3.074;2022-12-07T13:32:25;7.03;;;4.97;;
48813;SDS011;34634;44.108;3.074;2022-12-07T13:34:52;6.57;;;4.97;;
48813;SDS011;34634;44.108;3.074;2022-12-07T13:39:54;5.45;;;4.38;;
48813;SDS011;34634;44.108;3.074;2022-12-07T13:44:47;6.57;;;4.82;;
48813;SDS011;34634;44.108;3.074;2022-12-07T13:47:17;8.60;;;4.90;;
48813;SDS011;34634;44.108;3.074;2022-12-07T13:55:06;3.92;;;3.15;;
48813;SDS011;34634;44.108;3.074;2022-12-07T13:57:39;5.05;;;3.20;;
48813;SDS011;34634;44.108;3.074;2022-12-07T14:00:13;7.78;;;3.60;;
48813;SDS011;34634;44.108;3.074;2022-12-07T14:02:54;5.88;;;4.10;;
48813;SDS011;34634;44.108;3.074;2022-12-07T14:10:25;9.95;;;4.32;;
48813;SDS011;34634;44.108;3.074;2022-12-07T14:12:52;8.65;;;4.53;;
48813;SDS011;34634;44.108;3.074;2022-12-07T14:15:20;7.65;;;5.05;;
48813;SDS011;34634;44.108;3.074;2022-12-07T14:17:50;9.93;;;5.60;;
48813;SDS011;34634;44.108;3.074;2022-12-07T14:22:59;9.00;;;6.18;;
48813;SDS011;34634;44.108;3.074;2022-12-07T14:25:50;10.05;;;6.18;;
48813;SDS011;34634;44.108;3.074;2022-12-07T14:28:35;16.15;;;5.80;;
48813;SDS011;34634;44.108;3.074;2022-12-07T14:31:03;14.48;;;6.95;;
48813;SDS011;34634;44.108;3.074;2022-12-07T14:33:29;13.25;;;7.28;;
48813;SDS011;34634;44.108;3.074;2022-12-07T14:35:56;13.52;;;6.40;;
48813;SDS011;34634;44.108;3.074;2022-12-07T14:38:23;10.90;;;6.30;;
48813;SDS011;34634;44.108;3.074;2022-12-07T14:40:53;13.05;;;5.97;;
48813;SDS011;34634;44.108;3.074;2022-12-07T14:43:20;9.82;;;6.20;;
48813;SDS011;34634;44.108;3.074;2022-12-07T14:45:46;10.00;;;5.70;;
48813;SDS011;34634;44.108;3.074;2022-12-07T14:48:13;11.98;;;6.15;;
48813;SDS011;34634;44.108;3.074;2022-12-07T14:50:49;10.73;;;6.35;;
48813;SDS011;34634;44.108;3.074;2022-12-07T14:53:18;11.60;;;6.18;;
48813;SDS011;34634;44.108;3.074;2022-12-07T14:55:47;10.52;;;6.07;;
48813;SDS011;34634;44.108;3.074;2022-12-07T14:58:13;14.13;;;6.75;;
48813;SDS011;34634;44.108;3.074;2022-12-07T15:00:40;11.02;;;6.80;;
48813;SDS011;34634;44.108;3.074;2022-12-07T15:03:06;12.52;;;7.68;;
48813;SDS011;34634;44.108;3.074;2022-12-07T15:05:33;12.10;;;6.60;;
48813;SDS011;34634;44.108;3.074;2022-12-07T15:07:59;10.98;;;6.57;;
48813;SDS011;34634;44.108;3.074;2022-12-07T15:10:27;9.60;;;6.85;;
48813;SDS011;34634;44.108;3.074;2022-12-07T15:12:55;9.93;;;6.95;;
48813;SDS011;34634;44.108;3.074;2022-12-07T15:15:45;10.43;;;6.80;;
48813;SDS011;34634;44.108;3.074;2022-12-07T15:18:12;12.80;;;6.95;;
48813;SDS011;34634;44.108;3.074;2022-12-07T15:20:38;11.68;;;6.85;;
48813;SDS011;34634;44.108;3.074;2022-12-07T15:23:04;8.52;;;5.93;;
48813;SDS011;34634;44.108;3.074;2022-12-07T15:25:31;9.43;;;5.90;;
48813;SDS011;34634;44.108;3.074;2022-12-07T15:27:58;7.60;;;5.07;;
48813;SDS011;34634;44.108;3.074;2022-12-07T15:30:25;8.77;;;5.55;;
48813;SDS011;34634;44.108;3.074;2022-12-07T15:32:52;10.02;;;6.82;;
48813;SDS011;34634;44.108;3.074;2022-12-07T15:35:18;13.07;;;6.82;;
48813;SDS011;34634;44.108;3.074;2022-12-07T15:37:45;12.55;;;6.88;;
48813;SDS011;34634;44.108;3.074;2022-12-07T15:40:11;9.65;;;5.50;;
48813;SDS011;34634;44.108;3.074;2022-12-07T15:42:38;8.65;;;5.32;;
48813;SDS011;34634;44.108;3.074;2022-12-07T15:45:05;11.45;;;6.25;;
48813;SDS011;34634;44.108;3.074;2022-12-07T15:47:36;7.25;;;4.97;;
48813;SDS011;34634;44.108;3.074;2022-12-07T15:50:04;10.40;;;5.35;;
48813;SDS011;34634;44.108;3.074;2022-12-07T15:52:30;10.65;;;5.22;;
48813;SDS011;34634;44.108;3.074;2022-12-07T15:54:57;12.27;;;6.28;;
48813;SDS011;34634;44.108;3.074;2022-12-07T15:57:25;10.27;;;5.82;;
48813;SDS011;34634;44.108;3.074;2022-12-07T15:59:52;10.13;;;5.30;;
48813;SDS011;34634;44.108;3.074;2022-12-07T16:02:19;8.48;;;5.18;;
48813;SDS011;34634;44.108;3.074;2022-12-07T16:04:45;7.03;;;4.65;;
48813;SDS011;34634;44.108;3.074;2022-12-07T16:07:11;9.98;;;5.25;;
48813;SDS011;34634;44.108;3.074;2022-12-07T16:09:41;8.63;;;4.97;;
48813;SDS011;34634;44.108;3.074;2022-12-07T16:12:07;8.27;;;5.18;;
48813;SDS011;34634;44.108;3.074;2022-12-07T16:14:34;11.05;;;5.97;;
48813;SDS011;34634;44.108;3.074;2022-12-07T16:17:00;11.85;;;5.93;;
48813;SDS011;34634;44.108;3.074;2022-12-07T16:19:26;12.05;;;5.43;;
48813;SDS011;34634;44.108;3.074;2022-12-07T16:21:53;11.43;;;5.80;;
48813;SDS011;34634;44.108;3.074;2022-12-07T16:24:19;9.77;;;6.10;;
48813;SDS011;34634;44.108;3.074;2022-12-07T16:26:46;6.68;;;4.45;;
48813;SDS011;34634;44.108;3.074;2022-12-07T16:29:12;10.27;;;4.43;;
48813;SDS011;34634;44.108;3.074;2022-12-07T16:31:38;9.88;;;5.05;;
48813;SDS011;34634;44.108;3.074;2022-12-07T16:34:05;19.55;;;7.00;;
48813;SDS011;34634;44.108;3.074;2022-12-07T16:36:31;19.20;;;9.35;;
48813;SDS011;34634;44.108;3.074;2022-12-07T16:38:58;15.35;;;7.57;;
48813;SDS011;34634;44.108;3.074;2022-12-07T16:41:25;17.42;;;7.93;;
48813;SDS011;34634;44.108;3.074;2022-12-07T16:43:51;16.10;;;7.03;;
48813;SDS011;34634;44.108;3.074;2022-12-07T16:46:18;14.30;;;7.05;;
48813;SDS011;34634;44.108;3.074;2022-12-07T16:48:44;17.00;;;8.32;;
48813;SDS011;34634;44.108;3.074;2022-12-07T16:51:11;19.55;;;9.88;;
48813;SDS011;34634;44.108;3.074;2022-12-07T16:53:38;22.55;;;9.48;;
48813;SDS011;34634;44.108;3.074;2022-12-07T16:56:14;17.42;;;8.60;;
48813;SDS011;34634;44.108;3.074;2022-12-07T16:58:41;17.77;;;8.40;;
48813;SDS011;34634;44.108;3.074;2022-12-07T17:01:11;17.85;;;8.52;;
48813;SDS011;34634;44.108;3.074;2022-12-07T17:03:38;34.80;;;16.38;;
48813;SDS011;34634;44.108;3.074;2022-12-07T17:06:13;22.83;;;12.27;;
48813;SDS011;34634;44.108;3.074;2022-12-07T17:08:40;26.80;;;13.10;;